Flight Track Log - Related Links

Times and Time Zones

All times are in EST time to prevent confusion due to time zone crossing. See the N421KS flight status page for this flight to view local times or setup timezone preferences in your user account.


Time Position Orientation Groundspeed Altitude Reporting Facility
EST Latitude Longitude Course Direction KTS MPH feet Rate Location/Type
Mon 06:08:20 PM 41.1000 -73.7333 270° West 139 160 1,600  Level New York TRACON
Mon 06:09:26 PM 41.1000 -73.8000 270° West 140 161 2,800 1,095 Climbing New York TRACON
Mon 06:10:26 PM 41.1167 -73.8500 294° West 139 160 3,900 1,000 Climbing New York TRACON
Mon 06:11:26 PM 41.1500 -73.8667 339° North 140 161 4,800 947 Climbing New York TRACON
Mon 06:12:20 PM 41.1833 -73.8500 21° North 145 167 5,700 1,000 Climbing New York TRACON
Mon 06:13:26 PM 41.2000 -73.8000 66° East 142 163 6,800 857 Climbing New York TRACON
Mon 06:14:26 PM 41.2167 -73.7500 66° East 152 175 7,500 750 Climbing New York TRACON
Mon 06:15:26 PM 41.2333 -73.7000 66° East 154 177 8,300 750 Climbing New York TRACON
Mon 06:16:26 PM 41.2667 -73.6500 48° Northeast 159 183 9,000 421 Climbing New York TRACON
Mon 06:17:20 PM 41.2833 -73.6000 66° East 174 200 9,100 53 Climbing New York TRACON
Mon 06:18:20 PM 41.3000 -73.5333 72° East 188 216 9,100  Level New York TRACON
Mon 06:19:20 PM 41.3167 -73.4667 72° East 190 219 9,100  Level New York TRACON
Mon 06:20:26 PM 41.3333 -73.4000 72° East 192 221 9,100 -34 Level New York TRACON
Mon 06:22:14 PM 41.3800 -73.2819 62° Northeast 193 222 9,000  Descending Boston Center
Mon 06:23:14 PM 41.4000 -73.2164 68° East 192 221 9,100 48 Climbing Boston Center
Mon 06:24:18 PM 41.4219 -73.1467 67° East 193 222 9,100 -55 Level Boston Center
Mon 06:25:03 PM 41.4375 -73.0981 67° East 192 221 9,000 -100 Descending Boston Center
Mon 06:25:18 PM 41.4439 -73.0822 62° Northeast 193 222 9,000 98 Level Boston Center
Mon 06:26:04 PM 41.4594 -73.0342 67° East 192 221 9,100 98 Climbing Boston Center
Mon 06:26:19 PM 41.4658 -73.0172 63° Northeast 192 221 9,100 -91 Level Boston Center
Mon 06:27:10 PM 41.4828 -72.9622 68° East 193 222 9,000 -94 Descending Boston Center
Mon 06:27:23 PM 41.4881 -72.9531 52° Northeast 192 221 9,000 98 Level Boston Center
Mon 06:28:11 PM 41.5089 -72.8969 64° Northeast 190 219 9,100 100 Climbing Boston Center
Mon 06:28:23 PM 41.5169 -72.8889 37° Northeast 191 220 9,100  Level Boston Center
Mon 06:29:12 PM 41.5486 -72.8508 42° Northeast 186 214 9,100  Level Boston Center
Mon 06:29:24 PM 41.5569 -72.8450 28° Northeast 185 213 9,100 -98 Level Boston Center
Mon 06:30:13 PM 41.5925 -72.8147 32° Northeast 186 214 9,000  Descending Boston Center
Mon 06:30:25 PM 41.6000 -72.8089 30° Northeast 185 213 9,100  Climbing Boston Center
Mon 06:31:13 PM 41.6381 -72.7822 28° Northeast 185 213 9,000 -100 Descending Boston Center
Mon 06:31:25 PM 41.6492 -72.7747 27° Northeast 183 211 9,000  Level Boston Center
Mon 06:32:05 PM 41.6764 -72.7528 31° Northeast 183 211 9,000  Level Boston Center
Mon 06:32:28 PM 41.6950 -72.7431 21° North 185 213 9,000 97 Level Boston Center
Mon 06:33:07 PM 41.7258 -72.7217 27° Northeast 186 214 9,100  Climbing Boston Center
Mon 06:33:29 PM 41.7400 -72.7111 29° Northeast 185 213 9,000 -97 Descending Boston Center
Mon 06:34:09 PM 41.7697 -72.6856 33° Northeast 187 215 9,000  Level Boston Center
Mon 06:34:30 PM 41.7869 -72.6714 32° Northeast 185 213 9,000 98 Level Boston Center
Mon 06:35:10 PM 41.8122 -72.6458 37° Northeast 187 215 9,100 97 Climbing Boston Center
Mon 06:35:32 PM 41.8303 -72.6336 27° Northeast 186 214 9,100  Level Boston Center
Mon 06:36:09 PM 41.8561 -72.6097 35° Northeast 187 215 9,100  Level Boston Center
Mon 06:36:34 PM 41.8733 -72.5972 28° Northeast 185 213 9,100 -98 Level Boston Center
Mon 06:37:10 PM 41.9039 -72.5747 29° Northeast 186 214 9,000 -97 Descending Boston Center
Mon 06:37:36 PM 41.9208 -72.5594 34° Northeast 186 214 9,000  Level Boston Center
Mon 06:38:18 PM 41.9511 -72.5339 32° Northeast 186 214 9,000  Level Boston Center
Mon 06:38:36 PM 41.9644 -72.5236 30° Northeast 185 213 9,000  Level Boston Center
Mon 06:39:18 PM 41.9969 -72.4981 30° Northeast 186 214 9,000  Level Boston Center
Mon 06:39:36 PM 42.0086 -72.4897 28° Northeast 184 212 9,000  Level Boston Center
Mon 06:40:13 PM 42.0361 -72.4631 36° Northeast 186 214 9,000  Level Boston Center
Mon 06:40:40 PM 42.0542 -72.4483 31° Northeast 184 212 9,000  Level Boston Center
Mon 06:41:13 PM 42.0781 -72.4258 35° Northeast 183 211 9,000 100 Level Boston Center
Mon 06:41:40 PM 42.0953 -72.4089 36° Northeast 182 209 9,100 68 Climbing Boston Center
Mon 06:42:41 PM 42.1342 -72.3642 40° Northeast 184 212 9,100  Level Boston Center
Mon 06:43:44 PM 42.1769 -72.3175 39° Northeast 182 209 9,100 -48 Level Boston Center
Mon 06:44:45 PM 42.2194 -72.2811 32° Northeast 182 209 9,000  Descending Boston Center
Mon 06:45:45 PM 42.2622 -72.2442 33° Northeast 182 209 9,100  Climbing Boston Center
Mon 06:46:46 PM 42.3078 -72.2022 34° Northeast 184 212 9,000  Descending Boston Center
Mon 06:47:49 PM 42.3511 -72.1636 33° Northeast 187 215 9,100 48 Climbing Boston Center
Mon 06:48:50 PM 42.3947 -72.1264 32° Northeast 185 213 9,100  Level Boston Center
Mon 06:49:50 PM 42.4375 -72.0894 33° Northeast 184 212 9,100  Level Boston Center
Mon 06:50:51 PM 42.4844 -72.0500 32° Northeast 185 213 9,100  Level Boston Center
Mon 06:51:54 PM 42.5264 -72.0108 35° Northeast 187 215 9,100  Level Boston Center
Mon 06:52:55 PM 42.5686 -71.9711 35° Northeast 184 212 9,100 -49 Level Boston Center
Mon 06:53:56 PM 42.6117 -71.9339 32° Northeast 185 213 9,000 -49 Descending Boston Center
Mon 06:54:57 PM 42.6414 -71.8683 58° Northeast 188 216 9,000  Level Boston Center
Mon 06:55:57 PM 42.6672 -71.8061 61° Northeast 188 216 9,000  Level Boston Center
Mon 06:56:58 PM 42.7000 -71.7483 52° Northeast 194 223 9,000  Level Boston Center
Mon 06:58:02 PM 42.7325 -71.6933 51° Northeast 190 219 9,000  Level Boston Center
Mon 06:59:02 PM 42.7689 -71.6344 50° Northeast 191 220 9,000  Level Boston Center
Mon 07:00:04 PM 42.8028 -71.5803 50° Northeast 191 220 9,000  Level Boston Center
Mon 07:01:04 PM 42.8358 -71.5250 51° Northeast 190 219 9,000  Level Boston Center
Mon 07:02:05 PM 42.8711 -71.4669 50° Northeast 187 215 9,000  Level Boston Center
Mon 07:03:06 PM 42.9053 -71.4119 50° Northeast 189 217 9,000  Level Boston Center
Mon 07:04:07 PM 42.9403 -71.3603 47° Northeast 187 215 9,000  Level Boston Center
Mon 07:05:10 PM 42.9761 -71.3075 47° Northeast 186 214 9,000  Level Boston Center
Mon 07:06:11 PM 43.0117 -71.2542 48° Northeast 188 216 9,000  Level Boston Center
Mon 07:07:12 PM 43.0497 -71.1986 47° Northeast 188 216 9,000  Level Boston Center
Mon 07:08:13 PM 43.0811 -71.1428 52° Northeast 186 214 9,000  Level Boston Center
Mon 07:09:24 PM 43.1333 -71.0833 40° Northeast 186 214 9,000  Level KA90
Mon 07:10:24 PM 43.1667 -71.0333 48° Northeast 187 215 9,000  Level KA90
Mon 07:11:24 PM 43.2000 -70.9833 48° Northeast 186 214 9,000 -273 Level KA90
Mon 07:13:20 PM 43.2722 -70.8872 44° Northeast 203 234 8,200 -511 Descending Boston Center
Mon 07:14:20 PM 43.3117 -70.8278 48° Northeast 196 226 7,500 -893 Descending Boston Center
Mon 07:15:21 PM 43.3494 -70.7697 48° Northeast 204 235 6,400 -1,016 Descending Boston Center
Mon 07:16:24 PM 43.3853 -70.7097 51° Northeast 202 232 5,400 -968 Descending Boston Center
Mon 07:17:25 PM 43.4267 -70.6558 43° Northeast 199 229 4,400 -1,041 Descending Boston Center
Mon 07:18:25 PM 43.4681 -70.6133 37° Northeast 187 215 3,300 -950 Descending Boston Center
Mon 07:19:25 PM 43.5103 -70.5667 39° Northeast 182 209 2,500 -629 Descending Boston Center
Mon 07:20:29 PM 43.5425 -70.5183 47° Northeast 175 201 2,000 -387 Descending Boston Center
Mon 07:21:29 PM 43.5733 -70.4731 47° Northeast 165 190 1,700 -248 Descending Boston Center
Mon 07:22:30 PM 43.6011 -70.4303 48° Northeast 153 176 1,500 -148 Descending Boston Center
Mon 07:23:31 PM 43.6358 -70.4003 32° Northeast 137 158 1,400 -439 Descending Boston Center
Mon 07:24:33 PM 43.6497 -70.3575 66° East 127 146 600 -585 Descending Boston Center
Mon 07:25:34 PM 43.6458 -70.3186 98° East 120 138 200 -393 Descending Boston Center

Login

Don't have an account? Register now (free) for customized features, flight alerts, and more!